PDT,Max TemperatureF,Mean TemperatureF,Min TemperatureF,Max Dew PointF,MeanDew PointF,Min DewpointF,Max Humidity, Mean Humidity, Min Humidity, Max Sea Level PressureIn, Mean Sea Level PressureIn, Min Sea Level PressureIn, Max VisibilityMiles, Mean VisibilityMiles, Min VisibilityMiles, Max Wind SpeedMPH, Mean Wind SpeedMPH, Max Gust SpeedMPH,PrecipitationIn, CloudCover, Events, WindDirDegrees
2013-6-1,102,81,60,57,53,45,82,42,15,29.85,29.79,29.72,10,8,5,16,4,21,0.00,3,,246
2013-6-2,87,74,62,59,55,52,82,49,29,29.82,29.79,29.74,10,7,4,15,6,16,0.00,0,,250
2013-6-3,84,72,60,55,52,46,82,49,29,29.89,29.85,29.79,10,7,3,15,5,,0.00,2,,241
2013-6-4,82,71,60,54,52,48,77,52,30,29.95,29.92,29.87,10,5,3,12,3,,0.00,3,,243
2013-6-5,84,72,59,54,50,45,82,49,25,30.01,29.95,29.88,10,6,2,14,4,,0.00,2,,236
2013-6-6,86,72,57,54,51,46,88,47,25,29.95,29.90,29.85,10,7,3,14,6,,0.00,0,,241
2013-6-7,87,72,57,55,52,48,88,47,25,29.89,29.83,29.77,10,6,2,12,4,,0.00,2,,250
2013-6-8,89,74,59,55,53,48,88,49,24,29.86,29.84,29.81,10,7,2,16,4,,0.00,1,,257
2013-6-9,89,74,59,55,53,48,82,49,24,29.92,29.89,29.84,10,6,3,15,4,,0.00,3,,250
2013-6-10,84,72,59,54,49,45,82,46,25,29.96,29.92,29.88,10,7,2,14,5,,0.00,2,,257
2013-6-11,95,77,59,55,45,37,67,33,13,29.95,29.91,29.86,10,10,7,15,4,17,0.00,5,,247
2013-6-12,82,71,60,57,55,50,88,52,34,30.00,29.97,29.93,10,6,2,15,6,18,0.00,5,,243
2013-6-13,87,74,60,55,51,45,82,44,22,30.02,29.96,29.89,10,6,2,10,4,,0.00,2,,251
2013-6-14,87,73,59,55,50,43,77,44,21,29.93,29.87,29.82,10,6,3,14,5,17,0.00,0,,255
2013-6-15,84,70,57,54,49,43,88,44,23,29.98,29.93,29.89,10,7,3,15,6,,0.00,1,,239
2013-6-16,87,72,57,54,49,43,77,44,21,30.04,29.98,29.94,10,8,5,15,3,,0.00,0,,246
2013-6-17,91,76,60,52,47,41,68,34,17,29.99,29.94,29.88,10,8,5,14,4,,0.00,0,,264
2013-6-18,89,76,62,54,48,43,68,37,20,29.92,29.87,29.83,10,7,5,14,3,17,0.00,0,,254
2013-6-19,86,72,59,55,50,45,82,44,23,29.88,29.83,29.79,10,7,4,12,4,18,0.00,0,,252
2013-6-20,89,74,60,52,45,39,63,34,18,29.87,29.84,29.80,10,10,7,15,4,,0.00,0,,241
2013-6-21,87,74,62,46,42,36,55,28,16,29.92,29.88,29.84,10,10,10,15,4,,0.00,2,,243
2013-6-22,87,74,60,54,48,43,64,38,23,29.92,29.87,29.81,10,10,10,12,4,16,0.00,0,,249
2013-6-23,82,70,59,55,52,46,88,53,28,29.89,29.84,29.78,10,7,3,15,6,,0.00,5,,256
2013-6-24,77,68,59,55,53,50,88,59,39,29.95,29.92,29.89,10,7,3,12,2,,0.00,5,,287
2013-6-25,84,72,60,55,54,54,77,48,35,30.00,29.95,29.78,10,7,5,12,4,,0.00,0,,230
2013-6-26,95,80,66,57,54,52,68,34,23,29.99,29.95,29.91,10,9,7,12,5,,0.00,0,,254
2013-6-27,100,86,71,57,52,48,60,30,17,30.04,30.01,29.97,10,10,10,16,5,,0.00,0,,252
2013-6-28,102,86,71,55,51,48,57,26,16,30.01,29.94,29.88,10,10,10,14,4,17,0.00,0,,245
2013-6-29,107,89,71,55,49,45,41,22,13,29.89,29.82,29.77,10,10,10,13,5,,0.00,2,,254
2013-6-30,107,91,75,59,51,43,42,25,12,29.81,29.77,29.75,10,10,10,15,6,22,0.00,1,,246